Time;durP1;ratioP1;P1;durP2;ratioP2;P2;SDS_P1;SDS_P2;PMS_P1;PMS_P2;Temp;Humidity;BMP_temperature;BMP_pressure;BME280_temperature;BME280_humidity;BME280_pressure;Samples;Min_cycle;Max_cycle;Signal;HPM_P1;HPM_P2
2022/09/07 00:00:29;;;;;;;0.50;0.50;;;18.90;77.00;18.30;95895.00;;;;5114003;28;20245;-59
2022/09/07 00:02:55;;;;;;;0.50;0.50;;;18.90;77.70;18.40;95896.00;;;;5113005;28;20633;-59
2022/09/07 00:05:22;;;;;;;0.50;0.50;;;18.90;77.60;18.40;95888.00;;;;5114034;28;20279;-59
2022/09/07 00:07:49;;;;;;;0.60;0.60;;;18.90;78.10;18.40;95871.00;;;;5113897;28;20241;-58
2022/09/07 00:10:16;;;;;;;0.77;0.77;;;18.90;78.60;18.10;95884.00;;;;5096320;28;20194;-59
2022/09/07 00:12:42;;;;;;;0.60;0.60;;;18.70;79.30;18.10;95873.00;;;;5113913;28;20575;-58
2022/09/07 00:15:11;;;;;;;0.60;0.60;;;18.60;80.30;18.10;95872.00;;;;5113830;28;20225;-58
2022/09/07 00:17:41;;;;;;;0.70;0.70;;;18.60;80.30;18.00;95877.00;;;;5113801;28;20222;-59
2022/09/07 00:20:10;;;;;;;0.60;0.60;;;18.60;80.60;18.00;95868.00;;;;5113765;28;20236;-58
2022/09/07 00:22:38;;;;;;;0.50;0.50;;;18.60;81.00;18.00;95879.00;;;;5095862;28;20208;-59
2022/09/07 00:25:08;;;;;;;0.50;0.50;;;18.60;80.90;18.10;95872.00;;;;5113669;28;20225;-59
2022/09/07 00:27:34;;;;;;;0.50;0.50;;;18.60;80.50;18.30;95857.00;;;;5113590;28;20202;-58
2022/09/07 00:30:01;;;;;;;0.70;0.70;;;18.70;79.60;18.40;95853.00;;;;5113500;28;20234;-59
2022/09/07 00:32:27;;;;;;;0.67;0.67;;;18.80;79.00;18.50;95848.00;;;;5113574;28;20242;-59
2022/09/07 00:34:55;;;;;;;0.50;0.50;;;19.00;78.50;18.60;95833.00;;;;5113543;28;20300;-59
2022/09/07 00:37:21;;;;;;;0.90;0.90;;;19.10;78.60;18.50;95832.00;;;;5113615;28;20491;-59
2022/09/07 00:39:48;;;;;;;1.10;1.10;;;19.10;78.70;18.60;95830.00;;;;5113430;28;20209;-59
2022/09/07 00:42:17;;;;;;;0.60;0.60;;;19.10;78.50;18.60;95822.00;;;;5113557;28;20186;-62
2022/09/07 00:45:13;;;;;;;0.60;0.60;;;19.10;78.50;18.20;95825.00;;;;5113430;28;20190;-58
2022/09/07 00:47:51;;;;;;;0.53;0.53;;;18.90;78.90;18.10;95835.00;;;;5113421;28;20228;-59
2022/09/07 00:50:26;;;;;;;1.07;0.87;;;18.70;80.40;18.10;95826.00;;;;5113370;28;20272;-64
2022/09/07 00:52:59;;;;;;;0.50;0.50;;;18.70;81.00;18.10;95823.00;;;;5113359;28;20644;-61
2022/09/07 00:55:26;;;;;;;0.60;0.60;;;18.70;81.30;18.10;95812.00;;;;5113622;28;20220;-63
2022/09/07 00:57:55;;;;;;;3.10;1.43;;;18.60;81.50;18.00;95821.00;;;;5113306;28;20217;-57
2022/09/07 01:00:23;;;;;;;0.57;0.57;;;18.60;81.90;18.00;95823.00;;;;5113398;28;20190;-59
2022/09/07 01:02:54;;;;;;;0.50;0.50;;;18.60;81.80;17.90;95811.00;;;;5113299;28;20221;-59
2022/09/07 01:05:30;;;;;;;1.33;1.03;;;18.50;82.00;17.90;95815.00;;;;5113383;28;20221;-58
2022/09/07 01:07:57;;;;;;;0.63;0.63;;;18.50;82.30;17.90;95807.00;;;;5113078;28;20537;-58
2022/09/07 01:10:30;;;;;;;0.67;0.67;;;18.50;82.60;17.90;95811.00;;;;5095236;28;20296;-58
2022/09/07 01:12:58;;;;;;;0.60;0.60;;;18.50;82.40;17.80;95810.00;;;;5113009;28;20293;-59
2022/09/07 01:15:34;;;;;;;0.53;0.53;;;18.40;82.60;17.90;95804.00;;;;5116413;28;20253;-59
2022/09/07 01:18:16;;;;;;;0.60;0.60;;;18.50;82.40;18.10;95777.00;;;;5116628;28;20193;-59
2022/09/07 01:21:07;;;;;;;0.50;0.50;;;18.60;81.80;17.90;95808.00;;;;5116579;28;20245;-57
2022/09/07 01:24:14;;;;;;;0.73;0.73;;;18.50;82.30;17.90;95815.00;;;;5116530;28;20206;-58
2022/09/07 01:27:37;;;;;;;0.70;0.70;;;18.50;81.90;17.70;95809.00;;;;5116711;28;20277;-59
2022/09/07 01:30:09;;;;;;;1.63;1.53;;;18.30;83.30;17.80;95805.00;;;;5045881;28;20218;-58
2022/09/07 01:33:05;;;;;;;0.50;0.50;;;18.30;84.10;17.90;95807.00;;;;5116380;28;20680;-59
2022/09/07 01:35:55;;;;;;;0.70;0.70;;;18.30;84.00;17.90;95806.00;;;;5116316;28;20217;-59
2022/09/07 01:38:30;;;;;;;0.50;0.50;;;18.40;84.20;18.00;95812.00;;;;5116357;28;20524;-59
2022/09/07 01:41:03;;;;;;;0.53;0.53;;;18.40;84.80;18.00;95817.00;;;;5116299;28;20665;-59
2022/09/07 01:43:45;;;;;;;0.60;0.60;;;18.40;84.70;17.80;95818.00;;;;5116134;28;20229;-59
2022/09/07 01:46:20;;;;;;;1.17;1.17;;;18.40;85.40;17.80;95793.00;;;;5115215;28;20527;-58
2022/09/07 01:48:53;;;;;;;1.13;1.10;;;18.30;85.90;17.80;95816.00;;;;5115856;28;20217;-59
2022/09/07 01:51:27;;;;;;;0.77;0.77;;;18.30;85.90;17.80;95826.00;;;;5116051;28;20292;-59
2022/09/07 01:54:00;;;;;;;0.70;0.70;;;18.40;85.70;17.80;95828.00;;;;5116206;28;20248;-58
2022/09/07 01:56:35;;;;;;;0.47;0.47;;;18.30;85.70;17.80;95828.00;;;;5116143;28;20624;-60
2022/09/07 01:59:09;;;;;;;0.70;0.70;;;18.40;85.70;17.90;95834.00;;;;5115984;28;20279;-59
2022/09/07 02:01:44;;;;;;;1.00;1.00;;;18.50;85.40;18.00;95844.00;;;;5115995;28;20201;-59
2022/09/07 02:04:16;;;;;;;0.63;0.63;;;18.50;85.30;18.00;95855.00;;;;5115850;28;20285;-59
2022/09/07 02:06:48;;;;;;;0.47;0.47;;;18.50;85.10;18.00;95852.00;;;;5115934;28;20237;-59
2022/09/07 02:09:24;;;;;;;5.00;1.27;;;18.50;85.00;18.00;95856.00;;;;5097708;28;20716;-58
2022/09/07 02:11:50;;;;;;;0.80;0.80;;;18.60;84.70;18.10;95849.00;;;;5116236;28;20197;-59
2022/09/07 02:14:23;;;;;;;0.97;0.97;;;18.60;84.60;18.10;95846.00;;;;5115808;28;20234;-59
2022/09/07 02:16:57;;;;;;;2.67;1.77;;;18.60;84.50;18.10;95851.00;;;;5115706;28;20252;-59
2022/09/07 02:19:29;;;;;;;0.50;0.50;;;18.70;84.50;18.10;95849.00;;;;5115642;28;20588;-59
2022/09/07 02:22:05;;;;;;;0.80;0.80;;;18.70;84.50;18.20;95858.00;;;;5115516;28;20249;-58
2022/09/07 02:24:38;;;;;;;0.67;0.67;;;18.70;84.50;18.20;95853.00;;;;5115610;28;20552;-59
2022/09/07 02:27:12;;;;;;;0.60;0.60;;;18.70;84.40;18.20;95856.00;;;;5114657;28;20591;-58
2022/09/07 02:29:42;;;;;;;1.33;1.20;;;18.70;84.50;18.10;95864.00;;;;5115439;28;20198;-59
2022/09/07 02:32:09;;;;;;;0.90;0.90;;;18.70;84.60;18.10;95855.00;;;;5115350;28;20225;-59
2022/09/07 02:34:36;;;;;;;0.70;0.70;;;18.70;84.50;18.20;95856.00;;;;5115421;28;20197;-58
2022/09/07 02:37:06;;;;;;;0.80;0.80;;;18.70;84.50;18.20;95872.00;;;;5115441;28;20617;-61
2022/09/07 02:39:33;;;;;;;0.87;0.87;;;18.70;84.60;18.20;95868.00;;;;5115639;28;20205;-59
2022/09/07 02:42:02;;;;;;;10.93;1.40;;;18.80;83.80;18.10;95870.00;;;;5115327;28;20198;-59
2022/09/07 02:44:35;;;;;;;1.00;1.00;;;18.70;83.60;18.10;95875.00;;;;5115217;28;20232;-59
2022/09/07 02:47:23;;;;;;;1.50;1.40;;;18.70;83.70;18.00;95869.00;;;;5097299;28;20213;-58
2022/09/07 02:50:20;;;;;;;0.70;0.70;;;18.60;84.00;17.90;95876.00;;;;5114995;28;20226;-58
2022/09/07 02:53:13;;;;;;;1.10;0.87;;;18.50;84.30;17.90;95869.00;;;;5115149;28;20190;-59
2022/09/07 02:55:59;;;;;;;0.60;0.60;;;18.50;84.70;18.00;95874.00;;;;5115084;28;20218;-59
2022/09/07 02:58:37;;;;;;;0.83;0.83;;;18.50;84.50;17.50;95874.00;;;;5115112;28;20205;-58
2022/09/07 03:01:17;;;;;;;0.57;0.57;;;18.20;84.70;17.30;95852.00;;;;5114936;28;20218;-58
2022/09/07 03:03:54;;;;;;;0.50;0.50;;;18.00;86.40;17.30;95863.00;;;;5115029;28;20206;-59
2022/09/07 03:06:28;;;;;;;2.00;1.43;;;18.00;86.70;17.20;95870.00;;;;5114976;28;20271;-59
2022/09/07 03:09:01;;;;;;;0.70;0.70;;;17.90;87.20;17.20;95870.00;;;;5114885;28;20225;-59
2022/09/07 03:11:30;;;;;;;1.27;1.17;;;17.80;87.50;17.20;95872.00;;;;5114803;28;20217;-59
2022/09/07 03:14:14;;;;;;;0.50;0.50;;;17.80;87.80;17.20;95873.00;;;;5114720;28;20262;-57
2022/09/07 03:16:40;;;;;;;0.53;0.53;;;17.80;88.10;17.20;95877.00;;;;5114663;28;20217;-59
2022/09/07 03:19:07;;;;;;;0.70;0.70;;;17.80;88.10;17.20;95864.00;;;;5096772;28;20555;-59
2022/09/07 03:21:34;;;;;;;0.60;0.60;;;17.80;87.80;17.10;95860.00;;;;5114733;28;20579;-59
2022/09/07 03:24:01;;;;;;;0.80;0.80;;;17.80;88.00;17.10;95870.00;;;;5114800;28;20213;-59
2022/09/07 03:26:28;;;;;;;0.83;0.83;;;17.70;88.10;17.10;95858.00;;;;5114637;28;20193;-58
2022/09/07 03:28:54;;;;;;;0.77;0.77;;;17.70;88.20;17.10;95854.00;;;;5096542;28;20672;-60
2022/09/07 03:31:21;;;;;;;0.97;0.97;;;17.70;88.20;17.20;95859.00;;;;5096501;28;20213;-60
2022/09/07 03:33:48;;;;;;;0.73;0.73;;;17.70;88.40;17.10;95867.00;;;;5096452;28;20260;-60
2022/09/07 03:36:17;;;;;;;0.73;0.73;;;17.70;88.10;17.00;95864.00;;;;5114587;28;20613;-59
2022/09/07 03:38:44;;;;;;;0.73;0.73;;;17.60;88.20;16.90;95865.00;;;;5114298;28;20214;-60
2022/09/07 03:41:11;;;;;;;1.00;0.90;;;17.60;88.40;16.90;95872.00;;;;5114339;28;20201;-59
2022/09/07 03:43:38;;;;;;;0.50;0.50;;;17.50;88.50;16.80;95866.00;;;;5114199;28;20564;-57
2022/09/07 03:46:06;;;;;;;0.87;0.87;;;17.40;88.80;16.80;95866.00;;;;5114185;28;20358;-58
2022/09/07 03:48:34;;;;;;;0.80;0.80;;;17.50;89.10;16.90;95854.00;;;;5114061;28;20286;-58
2022/09/07 03:51:03;;;;;;;0.77;0.77;;;17.50;89.10;16.90;95856.00;;;;5114207;28;20201;-58
2022/09/07 03:53:32;;;;;;;0.67;0.67;;;17.50;89.20;16.90;95853.00;;;;5113999;28;20221;-58
2022/09/07 03:56:02;;;;;;;0.60;0.60;;;17.40;89.10;16.70;95866.00;;;;5114116;28;20198;-58
2022/09/07 03:58:30;;;;;;;0.63;0.63;;;17.40;88.40;16.60;95871.00;;;;5114010;28;20259;-58
2022/09/07 04:01:05;;;;;;;0.73;0.73;;;17.20;88.30;16.40;95868.00;;;;5114094;28;20213;-57
2022/09/07 04:03:32;;;;;;;0.77;0.77;;;17.10;89.40;16.30;95866.00;;;;5114015;28;20194;-59
2022/09/07 04:05:59;;;;;;;0.53;0.53;;;17.00;89.80;16.40;95866.00;;;;5114085;28;20212;-60
2022/09/07 04:08:26;;;;;;;1.00;0.93;;;17.00;90.40;16.40;95862.00;;;;5113909;28;20255;-60
2022/09/07 04:10:56;;;;;;;0.50;0.50;;;17.00;90.60;16.50;95862.00;;;;5113977;28;20209;-60
2022/09/07 04:13:23;;;;;;;0.90;0.90;;;17.00;91.20;16.40;95857.00;;;;5095900;28;20653;-60
2022/09/07 04:15:50;;;;;;;1.10;1.00;;;17.00;92.00;16.40;95862.00;;;;5096214;28;20208;-61
2022/09/07 04:18:17;;;;;;;0.53;0.53;;;17.10;91.30;16.40;95875.00;;;;5113918;28;20209;-60
2022/09/07 04:20:44;;;;;;;1.03;1.03;;;17.00;90.70;16.20;95876.00;;;;5095872;28;20202;-60
2022/09/07 04:23:13;;;;;;;3.13;1.57;;;16.90;90.20;16.10;95884.00;;;;5113879;28;20250;-59
2022/09/07 04:25:47;;;;;;;2.03;1.83;;;16.70;91.50;16.10;95873.00;;;;5113787;28;20661;-58
2022/09/07 04:28:15;;;;;;;0.87;0.87;;;16.70;91.90;16.10;95868.00;;;;5113506;28;20249;-61
2022/09/07 04:30:44;;;;;;;0.60;0.60;;;16.80;92.10;16.20;95869.00;;;;5113661;28;20196;-60
2022/09/07 04:33:14;;;;;;;1.00;1.00;;;16.80;91.90;16.00;95867.00;;;;5113644;28;20220;-59
2022/09/07 04:35:43;;;;;;;0.67;0.67;;;16.70;91.10;16.20;95868.00;;;;5113708;28;20217;-60
2022/09/07 04:38:13;;;;;;;1.03;1.03;;;16.70;92.40;16.00;95857.00;;;;5113639;28;20190;-60
2022/09/07 04:40:40;;;;;;;0.80;0.80;;;16.60;92.30;16.00;95859.00;;;;5113795;28;20221;-60
2022/09/07 04:43:08;;;;;;;0.60;0.60;;;16.60;92.00;15.90;95869.00;;;;5113653;28;20190;-59
2022/09/07 04:45:36;;;;;;;1.47;1.37;;;16.60;92.00;16.00;95866.00;;;;5095650;28;20198;-59
2022/09/07 04:48:04;;;;;;;1.23;1.20;;;16.50;93.30;16.10;95844.00;;;;5113654;28;20198;-62
2022/09/07 04:50:31;;;;;;;0.90;0.90;;;16.70;93.40;16.20;95865.00;;;;5116711;28;20225;-60
2022/09/07 04:52:57;;;;;;;0.80;0.80;;;16.80;93.00;16.20;95866.00;;;;5117064;28;20255;-60
2022/09/07 04:55:24;;;;;;;0.80;0.80;;;16.80;92.70;16.20;95862.00;;;;5117157;28;20309;-60
2022/09/07 04:57:50;;;;;;;3.67;0.73;;;16.80;92.10;16.10;95874.00;;;;5117135;28;20240;-62
2022/09/07 05:00:18;;;;;;;0.80;0.80;;;16.70;91.90;16.10;95876.00;;;;5116866;28;20221;-60
2022/09/07 05:02:45;;;;;;;1.40;1.40;;;16.70;92.10;16.20;95870.00;;;;5116890;28;20238;-59
2022/09/07 05:05:14;;;;;;;1.10;1.00;;;16.80;91.90;16.20;95876.00;;;;5116878;28;20229;-60
2022/09/07 05:07:44;;;;;;;0.70;0.70;;;16.80;92.10;16.30;95866.00;;;;5116871;28;20194;-60
2022/09/07 05:10:12;;;;;;;0.80;0.80;;;16.90;92.40;16.30;95873.00;;;;5116693;28;20253;-60
2022/09/07 05:12:39;;;;;;;0.50;0.50;;;16.90;92.20;16.30;95866.00;;;;5098747;28;20198;-60
2022/09/07 05:15:06;;;;;;;0.70;0.70;;;16.90;91.70;16.30;95868.00;;;;5117393;28;20232;-58
2022/09/07 05:17:33;;;;;;;0.80;0.80;;;16.90;91.90;16.30;95868.00;;;;5117976;28;20674;-58
2022/09/07 05:20:00;;;;;;;1.00;1.00;;;16.90;91.50;16.00;95878.00;;;;5116650;28;20256;-60
2022/09/07 05:22:27;;;;;;;0.70;0.70;;;16.70;91.30;16.10;95873.00;;;;5116671;28;20186;-60
2022/09/07 05:24:53;;;;;;;0.60;0.60;;;16.70;91.90;16.10;95881.00;;;;5116617;28;20257;-60
2022/09/07 05:27:20;;;;;;;0.80;0.80;;;16.70;92.70;16.20;95875.00;;;;5117596;28;20225;-59
2022/09/07 05:29:47;;;;;;;1.33;1.30;;;16.80;92.30;16.30;95883.00;;;;5116521;28;20218;-60
2022/09/07 05:32:13;;;;;;;0.70;0.70;;;16.90;92.40;16.30;95882.00;;;;5116529;28;20190;-60
2022/09/07 05:34:40;;;;;;;1.20;1.20;;;16.90;92.00;16.40;95886.00;;;;5116504;28;20193;-57
2022/09/07 05:37:08;;;;;;;0.70;0.70;;;17.00;91.80;16.40;95893.00;;;;5116944;28;20202;-59
2022/09/07 05:39:34;;;;;;;1.33;1.23;;;17.00;91.70;16.50;95906.00;;;;5116440;28;20210;-60
2022/09/07 05:42:01;;;;;;;1.27;1.23;;;17.10;91.10;16.50;95900.00;;;;5116244;28;20217;-60
2022/09/07 05:44:27;;;;;;;1.10;0.73;;;17.10;91.10;16.60;95900.00;;;;5098158;28;20617;-59
2022/09/07 05:46:54;;;;;;;1.50;1.40;;;17.10;90.80;16.60;95900.00;;;;5116291;28;20189;-59
2022/09/07 05:49:20;;;;;;;1.10;1.10;;;17.10;90.60;16.70;95900.00;;;;5116121;28;20214;-60
2022/09/07 05:51:47;;;;;;;0.63;0.63;;;17.20;90.50;16.80;95909.00;;;;5116222;28;20181;-59
2022/09/07 05:54:14;;;;;;;0.63;0.63;;;17.30;90.30;17.00;95912.00;;;;5116113;28;20225;-63
2022/09/07 05:56:41;;;;;;;0.90;0.90;;;17.40;90.50;17.10;95899.00;;;;5098069;28;20213;-60
2022/09/07 05:59:08;;;;;;;12.73;1.87;;;17.60;90.30;17.30;95912.00;;;;5116125;28;20194;-59
2022/09/07 06:01:35;;;;;;;0.80;0.80;;;17.80;89.90;17.40;95903.00;;;;5114728;28;20217;-60
2022/09/07 06:04:04;;;;;;;3.57;1.90;;;17.90;89.70;17.60;95904.00;;;;5115915;28;20210;-63
2022/09/07 06:06:31;;;;;;;1.17;1.17;;;18.00;89.10;17.70;95901.00;;;;5115973;28;20222;-60
2022/09/07 06:08:58;;;;;;;1.63;1.57;;;18.20;88.60;17.80;95895.00;;;;5115800;28;20221;-63
2022/09/07 06:11:26;;;;;;;4.57;2.30;;;18.30;88.20;18.00;95897.00;;;;5115883;28;20229;-62
2022/09/07 06:13:53;;;;;;;4.33;1.83;;;18.40;87.80;18.00;95894.00;;;;5115763;28;20210;-65
2022/09/07 06:16:20;;;;;;;0.97;0.97;;;18.50;87.60;18.10;95895.00;;;;5115744;28;20202;-62
2022/09/07 06:18:49;;;;;;;0.63;0.63;;;18.60;87.20;18.20;95896.00;;;;5115891;28;20202;-65
2022/09/07 06:21:19;;;;;;;0.93;0.93;;;18.70;86.20;18.20;95893.00;;;;5097986;28;20221;-64
2022/09/07 06:23:47;;;;;;;0.73;0.73;;;18.60;86.40;18.10;95892.00;;;;5115649;28;20202;-64
2022/09/07 06:26:15;;;;;;;0.70;0.70;;;18.60;86.90;18.20;95889.00;;;;5115841;28;20194;-62
2022/09/07 06:28:44;;;;;;;0.57;0.57;;;18.70;87.00;18.20;95896.00;;;;5115287;28;20230;-60
2022/09/07 06:31:14;;;;;;;0.87;0.87;;;18.70;87.10;18.20;95896.00;;;;5097387;28;20205;-60
2022/09/07 06:33:44;;;;;;;0.63;0.63;;;18.70;87.40;18.20;95891.00;;;;5115344;28;20260;-59
2022/09/07 06:36:12;;;;;;;0.93;0.93;;;18.70;87.20;18.10;95891.00;;;;5097391;28;20217;-59
2022/09/07 06:38:40;;;;;;;1.30;1.23;;;18.70;87.20;18.10;95899.00;;;;5115285;28;20187;-60
2022/09/07 06:41:10;;;;;;;0.60;0.60;;;18.70;87.20;18.10;95905.00;;;;5115200;28;20305;-58
2022/09/07 06:43:37;;;;;;;0.57;0.57;;;18.60;87.00;18.10;95906.00;;;;5115264;28;20469;-59
2022/09/07 06:46:06;;;;;;;0.77;0.77;;;18.60;87.00;18.00;95895.00;;;;5115062;28;20243;-58
2022/09/07 06:48:33;;;;;;;0.80;0.80;;;18.60;87.20;18.00;95894.00;;;;5115132;28;20259;-60
2022/09/07 06:51:03;;;;;;;1.90;1.80;;;18.60;86.80;18.20;95891.00;;;;5115094;28;20555;-59
2022/09/07 06:53:32;;;;;;;0.90;0.90;;;18.70;86.80;18.20;95898.00;;;;5115083;28;20302;-61
2022/09/07 06:56:00;;;;;;;8.70;1.63;;;18.70;86.60;18.30;95893.00;;;;5115044;28;20254;-59
2022/09/07 06:58:27;;;;;;;1.10;1.10;;;18.80;86.60;18.50;95892.00;;;;5115162;28;20190;-60
2022/09/07 07:00:54;;;;;;;1.50;1.40;;;18.90;86.00;18.60;95894.00;;;;5115007;28;20213;-60
2022/09/07 07:03:22;;;;;;;0.77;0.77;;;19.10;85.30;18.70;95897.00;;;;5114877;28;20652;-60
2022/09/07 07:05:53;;;;;;;0.60;0.60;;;19.20;84.70;18.90;95902.00;;;;5096957;28;20229;-60
2022/09/07 07:08:21;;;;;;;0.50;0.50;;;19.30;83.90;18.70;95896.00;;;;5114632;28;20602;-60
2022/09/07 07:10:47;;;;;;;0.40;0.40;;;19.20;83.30;19.00;95880.00;;;;5114772;28;20190;-57
2022/09/07 07:13:14;;;;;;;1.50;1.40;;;19.40;82.70;19.20;95905.00;;;;5114442;28;20198;-60
2022/09/07 07:15:41;;;;;;;0.50;0.50;;;19.60;82.40;19.30;95908.00;;;;5114967;28;20197;-59
2022/09/07 07:18:09;;;;;;;0.83;0.83;;;19.70;82.40;19.50;95904.00;;;;5114704;28;20190;-60
2022/09/07 07:20:37;;;;;;;0.50;0.50;;;19.90;81.90;19.40;95909.00;;;;5114505;28;20221;-60
2022/09/07 07:23:04;;;;;;;0.60;0.60;;;19.90;82.30;19.70;95901.00;;;;5114627;28;20308;-59
2022/09/07 07:25:33;;;;;;;0.60;0.60;;;20.00;80.50;19.90;95926.00;;;;5096498;28;20252;-59
2022/09/07 07:28:00;;;;;;;1.53;1.50;;;20.30;78.90;19.90;95922.00;;;;5114630;28;20205;-60
2022/09/07 07:30:26;;;;;;;0.63;0.63;;;20.30;79.20;20.00;95927.00;;;;5114604;28;20197;-59
2022/09/07 07:32:54;;;;;;;0.80;0.80;;;20.50;78.90;20.20;95929.00;;;;5114474;28;20578;-58
2022/09/07 07:35:22;;;;;;;0.50;0.50;;;20.50;77.80;20.10;95934.00;;;;5114415;28;20684;-60
2022/09/07 07:37:52;;;;;;;0.87;0.87;;;20.50;78.60;20.30;95942.00;;;;5114368;28;20222;-60
2022/09/07 07:40:18;;;;;;;0.80;0.80;;;20.70;77.90;20.50;95940.00;;;;5096393;28;20259;-60
2022/09/07 07:42:47;;;;;;;0.57;0.57;;;20.90;77.00;20.60;95942.00;;;;5114289;28;20218;-59
2022/09/07 07:45:14;;;;;;;0.57;0.57;;;20.90;78.10;20.80;95952.00;;;;5114422;28;20202;-58
2022/09/07 07:47:40;;;;;;;0.70;0.70;;;21.10;76.30;20.90;95948.00;;;;5114381;28;20205;-60
2022/09/07 07:50:08;;;;;;;0.60;0.60;;;21.30;76.80;20.60;95947.00;;;;5114175;28;20221;-64
2022/09/07 07:52:38;;;;;;;0.60;0.60;;;21.10;75.70;20.60;95941.00;;;;5114470;28;20194;-64
2022/09/07 07:55:07;;;;;;;0.60;0.60;;;21.00;75.80;20.90;95941.00;;;;5114210;28;20664;-62
2022/09/07 07:57:34;;;;;;;0.80;0.80;;;21.20;76.00;21.10;95942.00;;;;5114159;28;20229;-62
2022/09/07 08:00:01;;;;;;;0.60;0.60;;;21.40;75.60;21.00;95946.00;;;;5114075;28;20258;-62
2022/09/07 08:02:28;;;;;;;0.50;0.50;;;21.40;75.00;21.10;95952.00;;;;5114152;28;20228;-60
2022/09/07 08:04:54;;;;;;;0.87;0.87;;;21.50;74.00;21.40;95946.00;;;;5113992;28;20193;-59
2022/09/07 08:07:21;;;;;;;3.03;0.60;;;21.70;73.80;21.40;95947.00;;;;5114135;28;20657;-59
2022/09/07 08:09:48;;;;;;;0.40;0.40;;;21.70;72.70;21.50;95944.00;;;;5113966;28;20225;-63
2022/09/07 08:12:18;;;;;;;0.50;0.50;;;21.90;72.60;21.70;95940.00;;;;5113855;28;20217;-61
2022/09/07 08:14:46;;;;;;;8.40;1.13;;;22.00;71.20;21.70;95942.00;;;;5113915;28;20198;-61
2022/09/07 08:17:16;;;;;;;0.50;0.50;;;22.00;71.10;21.60;95939.00;;;;5113811;28;20186;-60
2022/09/07 08:19:44;;;;;;;0.50;0.50;;;22.00;71.80;21.70;95935.00;;;;5113841;28;20225;-60
2022/09/07 08:22:12;;;;;;;0.70;0.70;;;22.10;71.80;22.00;95942.00;;;;5113766;28;20232;-59
2022/09/07 08:24:39;;;;;;;0.95;0.95;;;22.30;71.20;22.30;95935.00;;;;5112653;28;20218;-60
2022/09/07 08:27:06;;;;;;;1.50;1.42;;;22.50;75.10;22.40;95946.00;;;;5113694;28;20233;-60
2022/09/07 08:29:33;;;;;;;0.40;0.40;;;22.70;76.70;22.50;95938.00;;;;5113473;28;20304;-60
2022/09/07 08:31:59;;;;;;;1.02;0.98;;;22.90;68.30;22.60;95936.00;;;;5113558;28;20276;-60
2022/09/07 08:34:26;;;;;;;1.52;1.42;;;22.90;66.90;22.80;95933.00;;;;5113510;28;20304;-60
2022/09/07 08:36:53;;;;;;;1.13;1.13;;;23.00;68.00;23.00;95943.00;;;;5095553;28;20556;-60
2022/09/07 08:39:20;;;;;;;0.52;0.52;;;23.20;65.90;23.00;95950.00;;;;5113583;28;20190;-60
2022/09/07 08:42:17;;;;;;;1.85;1.08;;;23.30;65.00;22.90;95942.00;;;;5113461;28;20225;-58
2022/09/07 08:44:51;;;;;;;1.00;1.00;;;23.20;65.40;22.80;95945.00;;;;5095723;28;20515;-60
2022/09/07 08:47:28;;;;;;;0.93;0.93;;;23.20;65.60;23.10;95959.00;;;;5113352;28;20222;-60
2022/09/07 08:50:03;;;;;;;0.65;0.65;;;23.40;64.90;23.10;95956.00;;;;5113190;28;20225;-60
2022/09/07 08:52:44;;;;;;;0.70;0.70;;;23.40;65.00;22.90;95966.00;;;;5095320;28;20609;-60
2022/09/07 08:55:20;;;;;;;0.63;0.63;;;23.30;63.90;23.00;95960.00;;;;5113506;28;20245;-59
2022/09/07 08:57:56;;;;;;;0.80;0.80;;;23.40;64.10;22.90;95949.00;;;;5113419;28;20229;-60
2022/09/07 09:00:25;;;;;;;0.80;0.80;;;23.30;63.10;22.90;95954.00;;;;5095282;28;20220;-60
2022/09/07 09:02:52;;;;;;;0.52;0.52;;;23.30;62.80;23.00;95947.00;;;;5113241;28;20190;-60
2022/09/07 09:05:35;;;;;;;0.50;0.50;;;23.30;61.20;23.00;95959.00;;;;5113201;28;20577;-60
2022/09/07 09:08:24;;;;;;;0.57;0.57;;;23.30;61.00;23.50;95941.00;;;;5113253;28;20186;-59
2022/09/07 09:11:05;;;;;;;0.45;0.45;;;23.70;61.50;23.80;95948.00;;;;5113089;28;20665;-58
2022/09/07 09:13:49;;;;;;;0.75;0.75;;;24.00;59.70;23.80;95935.00;;;;5113197;28;20194;-59
2022/09/07 09:16:31;;;;;;;0.70;0.70;;;24.10;56.50;23.60;95922.00;;;;5113002;28;20226;-58
2022/09/07 09:19:22;;;;;;;0.57;0.57;;;24.00;53.70;23.70;95917.00;;;;5113125;28;20282;-59
2022/09/07 09:22:06;;;;;;;0.50;0.50;;;24.10;52.50;23.40;95939.00;;;;5112909;28;20218;-59
2022/09/07 09:24:38;;;;;;;0.68;0.68;;;23.80;50.10;23.30;95936.00;;;;5113041;28;20263;-59
2022/09/07 09:27:05;;;;;;;1.08;0.45;;;23.70;51.10;23.30;95940.00;;;;5112928;28;20233;-59
2022/09/07 09:29:33;;;;;;;0.57;0.57;;;23.80;49.90;23.50;95938.00;;;;5112902;28;20218;-59
2022/09/07 09:32:34;;;;;;;0.60;0.60;;;23.80;49.80;23.90;95944.00;;;;5112846;28;20190;-60
2022/09/07 09:35:10;;;;;;;0.80;0.80;;;24.10;50.30;24.00;95951.00;;;;5113752;28;20280;-60
2022/09/07 09:37:39;;;;;;;1.75;0.80;;;;;24.10;95943.00;;;;5116380;28;20186;-58
2022/09/07 09:40:18;;;;;;;1.58;1.48;;;24.40;48.10;24.10;95939.00;;;;5116294;28;20194;-59
2022/09/07 09:42:45;;;;;;;0.50;0.50;;;;;23.90;95938.00;;;;5116346;28;20296;-60
2022/09/07 09:45:19;;;;;;;0.45;0.45;;;24.30;46.10;23.80;95937.00;;;;5116322;28;20202;-59
2022/09/07 09:47:50;;;;;;;0.40;0.40;;;24.20;47.50;23.80;95933.00;;;;5116270;28;20224;-60
2022/09/07 09:50:23;;;;;;;0.40;0.40;;;;;24.00;95932.00;;;;5116068;28;20221;-58
2022/09/07 09:52:51;;;;;;;0.50;0.50;;;24.30;46.80;23.90;95930.00;;;;5098129;28;20640;-58
2022/09/07 09:55:31;;;;;;;0.80;0.80;;;24.30;47.60;24.00;95926.00;;;;5116059;28;20222;-60
2022/09/07 09:58:01;;;;;;;0.30;0.30;;;;;24.20;95926.00;;;;5116093;28;20272;-60
2022/09/07 10:00:30;;;;;;;0.95;0.88;;;;;24.50;95920.00;;;;5098025;28;20653;-59
2022/09/07 10:03:14;;;;;;;0.70;0.70;;;;;24.50;95922.00;;;;5116034;28;20209;-60
2022/09/07 10:05:43;;;;;;;0.50;0.50;;;;;24.20;95916.00;;;;5116014;28;20194;-58
2022/09/07 10:08:17;;;;;;;0.63;0.63;;;;;24.70;95909.00;;;;5115770;28;20229;-60
2022/09/07 10:11:07;;;;;;;0.60;0.60;;;24.80;40.40;24.80;95905.00;;;;5115987;28;20209;-60
2022/09/07 10:13:43;;;;;;;2.75;1.10;;;;;24.80;95904.00;;;;5111633;28;20229;-60
2022/09/07 10:16:13;;;;;;;0.50;0.50;;;;;24.60;95911.00;;;;5115847;28;20273;-60
2022/09/07 10:18:55;;;;;;;3.97;1.02;;;24.90;39.40;24.80;95907.00;;;;5115552;28;20339;-60
2022/09/07 10:21:25;;;;;;;0.50;0.50;;;25.10;39.90;24.90;95899.00;;;;5115699;28;20310;-61
2022/09/07 10:23:57;;;;;;;0.55;0.55;;;25.10;41.00;25.30;95908.00;;;;5115670;28;20263;-61
2022/09/07 10:26:31;;;;;;;0.50;0.50;;;25.50;39.80;25.60;95909.00;;;;5115603;28;20210;-58
2022/09/07 10:29:16;;;;;;;1.20;1.08;;;25.80;36.60;26.00;95883.00;;;;5115503;28;20260;-57
2022/09/07 10:31:53;;;;;;;0.82;0.82;;;;;25.70;95905.00;;;;5115553;28;20205;-59
2022/09/07 10:34:37;;;;;;;0.60;0.60;;;26.00;34.10;25.60;95886.00;;;;5115487;28;20197;-59
2022/09/07 10:37:08;;;;;;;0.50;0.50;;;25.90;30.90;25.30;95884.00;;;;5115362;28;20240;-59
2022/09/07 10:39:38;;;;;;;0.57;0.57;;;;;25.70;95882.00;;;;5115384;28;20190;-59
2022/09/07 10:42:24;;;;;;;0.50;0.50;;;25.90;32.00;25.80;95880.00;;;;5115355;28;20224;-59
2022/09/07 10:45:04;;;;;;;0.60;0.60;;;;;26.00;95883.00;;;;5115335;28;20186;-59
2022/09/07 10:47:45;;;;;;;0.45;0.45;;;;;25.90;95884.00;;;;5114571;28;20209;-59
2022/09/07 10:50:27;;;;;;;0.60;0.60;;;26.20;32.10;25.90;95879.00;;;;5115108;28;20239;-58
2022/09/07 10:53:11;;;;;;;0.70;0.70;;;26.20;31.90;26.00;95884.00;;;;5115230;28;20268;-60
2022/09/07 10:55:46;;;;;;;0.98;0.98;;;;;26.30;95869.00;;;;5097299;28;20205;-58
2022/09/07 10:58:28;;;;;;;0.65;0.65;;;26.50;28.50;26.10;95867.00;;;;5115107;28;20186;-60
2022/09/07 11:01:12;;;;;;;0.63;0.63;;;26.40;28.90;26.20;95863.00;;;;5115058;28;20844;-60
2022/09/07 11:04:03;;;;;;;0.57;0.57;;;26.50;30.10;26.00;95863.00;;;;5115074;28;20269;-59
2022/09/07 11:06:36;;;;;;;0.60;0.60;;;;;26.30;95851.00;;;;5114894;28;20641;-59
2022/09/07 11:09:31;;;;;;;0.60;0.60;;;;;26.60;95857.00;;;;5115015;28;20213;-59
2022/09/07 11:12:05;;;;;;;1.00;1.00;;;26.70;29.40;26.40;95873.00;;;;5114993;28;20227;-63
2022/09/07 11:14:40;;;;;;;0.60;0.60;;;;;26.50;95857.00;;;;5097106;28;20198;-62
2022/09/07 11:17:16;;;;;;;0.45;0.45;;;26.80;28.90;26.00;95857.00;;;;5114834;28;20224;-61
2022/09/07 11:19:49;;;;;;;4.18;0.80;;;;;26.80;95857.00;;;;5097178;28;20209;-61